Time;durP1;ratioP1;P1;durP2;ratioP2;P2;SDS_P1;SDS_P2;PMS_P1;PMS_P2;Temp;Humidity;BMP_temperature;BMP_pressure;BME280_temperature;BME280_humidity;BME280_pressure;Samples;Min_cycle;Max_cycle;Signal;HPM_P1;HPM_P2
2024/01/18 00:00:28;;;;;;;4.03;1.97;;;;;;;5.98;100.00;91439.41;5051308;28;20076;-63
2024/01/18 00:02:54;;;;;;;3.88;2.30;;;;;;;5.97;100.00;91441.34;5052188;28;20036;-64
2024/01/18 00:05:21;;;;;;;3.38;2.00;;;;;;;5.95;100.00;91437.56;5051875;28;20057;-64
2024/01/18 00:07:48;;;;;;;4.65;2.47;;;;;;;5.95;100.00;91440.28;5052521;28;20040;-63
2024/01/18 00:10:15;;;;;;;3.83;2.20;;;;;;;5.99;100.00;91443.63;5052068;28;20045;-63
2024/01/18 00:12:42;;;;;;;4.27;2.30;;;;;;;5.96;100.00;91452.69;5051444;28;20041;-63
2024/01/18 00:15:09;;;;;;;3.00;1.73;;;;;;;6.00;100.00;91450.59;5052122;28;20071;-64
2024/01/18 00:17:37;;;;;;;3.88;2.35;;;;;;;6.03;100.00;91446.22;5051573;28;20079;-63
2024/01/18 00:20:04;;;;;;;2.80;1.60;;;;;;;6.05;100.00;91444.56;5067478;28;20043;-63
2024/01/18 00:22:31;;;;;;;3.13;1.95;;;;;;;6.06;100.00;91446.09;5051593;28;20033;-64
2024/01/18 00:24:58;;;;;;;5.13;1.77;;;;;;;6.12;100.00;91449.00;5052264;28;20044;-64
2024/01/18 00:27:25;;;;;;;3.72;1.65;;;;;;;6.14;100.00;91444.59;5051123;28;20052;-63
2024/01/18 00:29:52;;;;;;;2.90;1.77;;;;;;;6.16;100.00;91444.16;5052053;28;20044;-63
2024/01/18 00:32:19;;;;;;;4.53;2.50;;;;;;;6.17;100.00;91442.94;5051088;28;20036;-63
2024/01/18 00:34:46;;;;;;;5.97;2.75;;;;;;;6.15;100.00;91437.94;5051730;28;20040;-63
2024/01/18 00:37:14;;;;;;;3.50;2.30;;;;;;;6.12;100.00;91436.13;5049643;28;20041;-64
2024/01/18 00:39:41;;;;;;;3.28;1.75;;;;;;;6.07;100.00;91436.69;5051481;28;20049;-63
2024/01/18 00:42:09;;;;;;;3.65;2.00;;;;;;;6.11;100.00;91434.59;5051698;28;20057;-64
2024/01/18 00:44:36;;;;;;;3.90;2.30;;;;;;;6.15;100.00;91439.91;5051361;28;20094;-63
2024/01/18 00:47:03;;;;;;;3.33;2.13;;;;;;;6.11;100.00;91439.28;5051562;28;20429;-63
2024/01/18 00:49:30;;;;;;;3.53;2.20;;;;;;;6.12;100.00;91432.66;5051083;28;20409;-64
2024/01/18 00:51:57;;;;;;;3.90;2.35;;;;;;;6.05;100.00;91430.19;5051393;28;20041;-64
2024/01/18 00:54:23;;;;;;;6.85;3.90;;;;;;;6.08;100.00;91437.47;5049780;28;20535;-63
2024/01/18 00:56:50;;;;;;;5.15;3.00;;;;;;;6.12;100.00;91432.66;5051117;28;20432;-64
2024/01/18 00:59:17;;;;;;;5.10;3.30;;;;;;;6.12;100.00;91443.53;5051470;28;20051;-63
2024/01/18 01:01:44;;;;;;;4.40;2.83;;;;;;;6.10;100.00;91443.97;5050331;28;20049;-63
2024/01/18 01:04:11;;;;;;;4.60;2.65;;;;;;;6.06;100.00;91443.38;5051231;28;20652;-63
2024/01/18 01:06:37;;;;;;;5.20;3.05;;;;;;;6.06;100.00;91454.25;5050766;28;20040;-64
2024/01/18 01:09:06;;;;;;;4.75;2.83;;;;;;;6.04;100.00;91456.66;5051476;28;20535;-64
2024/01/18 01:11:33;;;;;;;5.20;3.28;;;;;;;6.07;100.00;91453.03;5050640;28;20045;-64
2024/01/18 01:13:59;;;;;;;5.90;3.47;;;;;;;6.05;100.00;91460.13;5051147;28;20045;-63
2024/01/18 01:16:26;;;;;;;5.30;3.28;;;;;;;6.02;100.00;91456.34;5050572;28;20150;-63
2024/01/18 01:18:53;;;;;;;5.22;3.22;;;;;;;5.96;100.00;91455.41;5050614;28;20049;-64
2024/01/18 01:21:20;;;;;;;6.22;3.70;;;;;;;5.94;100.00;91460.53;5050388;28;20397;-64
2024/01/18 01:23:48;;;;;;;6.78;3.30;;;;;;;6.00;100.00;91464.22;5050613;28;20048;-63
2024/01/18 01:26:16;;;;;;;5.33;3.17;;;;;;;5.96;100.00;91464.34;5051219;28;20468;-64
2024/01/18 01:28:43;;;;;;;5.43;3.40;;;;;;;5.96;100.00;91452.69;5050250;28;20242;-64
2024/01/18 01:31:10;;;;;;;5.97;3.10;;;;;;;6.04;100.00;91462.09;5050842;28;20045;-64
2024/01/18 01:33:37;;;;;;;5.38;2.85;;;;;;;6.03;100.00;91465.28;5049873;28;20049;-63
2024/01/18 01:36:04;;;;;;;4.88;2.97;;;;;;;6.01;100.00;91460.25;5049363;28;20051;-64
2024/01/18 01:38:31;;;;;;;4.40;2.93;;;;;;;6.02;100.00;91461.78;5049632;28;20075;-64
2024/01/18 01:40:59;;;;;;;4.60;2.70;;;;;;;5.97;100.00;91465.09;5050756;28;20048;-64
2024/01/18 01:43:27;;;;;;;6.10;3.28;;;;;;;6.03;100.00;91468.00;5048602;28;20510;-63
2024/01/18 01:45:54;;;;;;;4.90;2.90;;;;;;;6.00;100.00;91467.69;5050228;28;20052;-64
2024/01/18 01:48:21;;;;;;;4.05;2.55;;;;;;;6.03;100.00;91454.38;5049890;28;20045;-63
2024/01/18 01:50:48;;;;;;;4.93;2.70;;;;;;;6.04;100.00;91459.38;5050576;28;20044;-62
2024/01/18 01:53:18;;;;;;;4.72;2.80;;;;;;;6.05;100.00;91468.31;5050381;28;20071;-63
2024/01/18 01:55:46;;;;;;;4.32;2.97;;;;;;;6.05;100.00;91463.59;5049412;28;20599;-63
2024/01/18 01:58:15;;;;;;;5.10;3.25;;;;;;;6.05;100.00;91460.88;5050184;28;20045;-63
2024/01/18 02:00:44;;;;;;;4.65;2.80;;;;;;;6.02;100.00;91463.75;5049837;28;20037;-62
2024/01/18 02:03:11;;;;;;;4.57;2.70;;;;;;;6.02;100.00;91463.75;5050200;28;20047;-62
2024/01/18 02:05:39;;;;;;;4.90;2.80;;;;;;;5.98;100.00;91459.19;5049200;28;20387;-62
2024/01/18 02:08:06;;;;;;;5.63;3.00;;;;;;;6.04;100.00;91467.56;5049934;28;20425;-63
2024/01/18 02:10:33;;;;;;;5.00;2.65;;;;;;;6.02;100.00;91467.25;5049626;28;20053;-63
2024/01/18 02:13:00;;;;;;;4.03;2.47;;;;;;;6.06;100.00;91467.88;5049868;28;20051;-63
2024/01/18 02:15:27;;;;;;;4.23;2.70;;;;;;;6.02;100.00;91463.75;5049054;28;20107;-63
2024/01/18 02:17:54;;;;;;;5.32;2.50;;;;;;;6.05;100.00;91469.06;5050023;28;20037;-64
2024/01/18 02:20:21;;;;;;;4.35;2.13;;;;;;;6.02;100.00;91458.28;5049320;28;20072;-62
2024/01/18 02:22:49;;;;;;;3.80;2.20;;;;;;;6.03;100.00;91457.84;5049873;28;20048;-63
2024/01/18 02:25:24;;;;;;;3.80;2.03;;;;;;;6.04;100.00;91470.28;5049624;28;20568;-63
2024/01/18 02:27:57;;;;;;;3.20;1.60;;;;;;;6.07;100.00;91466.66;5048994;28;20829;-63
2024/01/18 02:30:24;;;;;;;3.42;1.95;;;;;;;6.08;100.00;91461.97;5048650;28;20114;-62
2024/01/18 02:32:51;;;;;;;3.72;1.67;;;;;;;6.06;100.00;91458.94;5049514;28;20494;-62
2024/01/18 02:35:18;;;;;;;3.05;1.77;;;;;;;6.05;100.00;91465.59;5049441;28;20041;-62
2024/01/18 02:37:46;;;;;;;3.33;2.00;;;;;;;6.01;100.00;91465.72;5048550;28;20409;-63
2024/01/18 02:40:12;;;;;;;4.23;1.70;;;;;;;6.00;100.00;91470.41;5049503;28;20043;-63
2024/01/18 02:42:39;;;;;;;3.40;2.00;;;;;;;5.99;100.00;91465.41;5049167;28;20061;-63
2024/01/18 02:45:07;;;;;;;3.00;1.70;;;;;;;5.97;100.00;91467.81;5049161;28;20059;-64
2024/01/18 02:47:34;;;;;;;3.53;1.85;;;;;;;5.97;100.00;91473.25;5064388;28;20048;-62
2024/01/18 02:50:02;;;;;;;3.28;2.00;;;;;;;5.96;100.00;91471.75;5048578;28;20045;-62
2024/01/18 02:52:28;;;;;;;3.23;1.93;;;;;;;5.94;100.00;91472.16;5049138;28;20044;-62
2024/01/18 02:54:55;;;;;;;3.55;2.10;;;;;;;5.92;100.00;91471.84;5049220;28;20037;-63
2024/01/18 02:57:22;;;;;;;3.78;2.20;;;;;;;5.87;100.00;91464.25;5048790;28;20393;-63
2024/01/18 02:59:49;;;;;;;3.67;2.00;;;;;;;5.97;100.00;91463.13;5047886;28;20401;-64
2024/01/18 03:02:15;;;;;;;4.00;2.03;;;;;;;5.96;100.00;91460.88;5049072;28;20512;-62
2024/01/18 03:04:42;;;;;;;3.60;2.03;;;;;;;5.95;100.00;91464.78;5048502;28;20373;-63
2024/01/18 03:07:09;;;;;;;3.70;2.30;;;;;;;5.92;100.00;91460.97;5047201;28;20136;-63
2024/01/18 03:09:36;;;;;;;4.57;2.60;;;;;;;5.92;100.00;91460.97;5048913;28;20051;-63
2024/01/18 03:12:03;;;;;;;4.38;2.60;;;;;;;5.94;100.00;91457.81;5048791;28;20045;-64
2024/01/18 03:14:31;;;;;;;5.75;2.97;;;;;;;5.91;100.00;91458.69;5035717;28;20055;-63
2024/01/18 03:17:03;;;;;;;4.90;2.80;;;;;;;5.94;100.00;91455.81;5050714;28;20075;-63
2024/01/18 03:19:30;;;;;;;4.65;2.55;;;;;;;5.92;100.00;91465.66;5052819;28;20049;-64
2024/01/18 03:21:57;;;;;;;4.22;2.75;;;;;;;5.90;100.00;91463.38;5053188;28;20401;-63
2024/01/18 03:24:23;;;;;;;4.15;2.40;;;;;;;5.86;100.00;91454.56;5052746;28;20418;-63
2024/01/18 03:26:50;;;;;;;4.60;2.63;;;;;;;5.89;100.00;91455.66;5051459;28;20041;-63
2024/01/18 03:29:17;;;;;;;4.70;2.60;;;;;;;5.87;100.00;91452.59;5052867;28;20067;-63
2024/01/18 03:31:44;;;;;;;5.28;2.63;;;;;;;5.88;100.00;91452.16;5051142;28;20577;-63
2024/01/18 03:34:10;;;;;;;4.78;2.63;;;;;;;5.88;100.00;91449.44;5052805;28;20048;-63
2024/01/18 03:36:37;;;;;;;6.28;2.90;;;;;;;5.83;100.00;91446.53;5052557;28;20047;-62
2024/01/18 03:39:06;;;;;;;5.90;2.55;;;;;;;5.88;100.00;91443.25;5051697;28;20049;-62
2024/01/18 03:41:33;;;;;;;12.10;3.67;;;;;;;5.86;100.00;91443.69;5052173;28;20041;-62
2024/01/18 03:43:59;;;;;;;4.13;2.10;;;;;;;5.86;100.00;91435.53;5052630;28;20045;-63
2024/01/18 03:46:26;;;;;;;5.57;2.30;;;;;;;5.83;100.00;91439.13;5051940;28;20456;-63
2024/01/18 03:48:53;;;;;;;8.32;2.50;;;;;;;5.84;100.00;91451.53;5052749;28;20437;-63
2024/01/18 03:51:21;;;;;;;6.63;2.95;;;;;;;5.80;100.00;91440.03;5067364;28;20406;-63
2024/01/18 03:53:47;;;;;;;5.07;2.40;;;;;;;5.85;100.00;91433.25;5052468;28;20044;-64
2024/01/18 03:56:14;;;;;;;8.90;2.90;;;;;;;5.88;100.00;91435.84;5052606;28;20037;-62
2024/01/18 03:58:42;;;;;;;5.43;2.65;;;;;;;5.83;100.00;91441.84;5051924;28;20060;-63
2024/01/18 04:01:09;;;;;;;12.07;4.05;;;;;;;5.84;100.00;91429.78;5052548;28;20041;-63
2024/01/18 04:03:36;;;;;;;6.88;2.78;;;;;;;5.85;100.00;91427.81;5051816;28;20393;-62
2024/01/18 04:06:03;;;;;;;7.33;2.57;;;;;;;5.81;100.00;91430.66;5051129;28;20043;-64
2024/01/18 04:08:31;;;;;;;4.68;2.10;;;;;;;5.79;100.00;91424.91;5034296;28;20053;-62
2024/01/18 04:10:57;;;;;;;6.35;2.50;;;;;;;5.77;100.00;91427.31;5052331;28;20048;-63
2024/01/18 04:13:24;;;;;;;5.00;2.30;;;;;;;5.81;100.00;91433.38;5052027;28;20053;-62
2024/01/18 04:15:51;;;;;;;5.75;2.40;;;;;;;5.78;100.00;91421.41;5052092;28;20409;-62
2024/01/18 04:18:18;;;;;;;4.23;2.27;;;;;;;5.73;100.00;91416.53;5067139;28;20045;-63
2024/01/18 04:20:45;;;;;;;3.78;2.08;;;;;;;5.73;100.00;91419.28;5051251;28;20785;-62
2024/01/18 04:23:11;;;;;;;9.43;3.08;;;;;;;5.73;100.00;91404.91;5050778;28;20478;-63
2024/01/18 04:25:38;;;;;;;6.03;2.42;;;;;;;5.73;100.00;91413.06;5051553;28;20045;-63
2024/01/18 04:28:05;;;;;;;6.03;2.80;;;;;;;5.70;100.00;91416.69;5051893;28;20055;-62
2024/01/18 04:30:32;;;;;;;11.90;4.70;;;;;;;5.77;100.00;91419.13;5051241;28;20048;-63
2024/01/18 04:32:59;;;;;;;4.15;2.17;;;;;;;5.76;100.00;91412.94;5051882;28;20413;-63
2024/01/18 04:35:26;;;;;;;6.78;2.85;;;;;;;5.75;100.00;91408.69;5050832;28;20033;-63
2024/01/18 04:37:52;;;;;;;3.15;1.70;;;;;;;5.74;100.00;91414.59;5050417;28;20045;-64
2024/01/18 04:40:19;;;;;;;2.88;1.63;;;;;;;5.76;100.00;91415.66;5038139;28;20040;-62
2024/01/18 04:42:46;;;;;;;3.50;1.40;;;;;;;5.80;100.00;91413.56;5051455;28;20048;-63
2024/01/18 04:45:13;;;;;;;4.55;1.88;;;;;;;5.77;100.00;91400.09;5051479;28;20383;-64
2024/01/18 04:47:40;;;;;;;2.25;1.10;;;;;;;5.77;100.00;91405.53;5051086;28;20110;-62
2024/01/18 04:50:08;;;;;;;5.32;2.38;;;;;;;5.75;100.00;91399.78;5050115;28;20049;-63
2024/01/18 04:52:35;;;;;;;4.90;2.13;;;;;;;5.73;100.00;91397.50;5051135;28;20053;-63
2024/01/18 04:55:04;;;;;;;2.87;1.30;;;;;;;5.72;100.00;91401.44;5049926;28;20459;-63
2024/01/18 04:57:32;;;;;;;7.00;3.17;;;;;;;5.71;100.00;91401.88;5050949;28;20045;-63
2024/01/18 04:59:59;;;;;;;9.40;4.10;;;;;;;5.67;100.00;91404.72;5050989;28;20486;-63
2024/01/18 05:02:26;;;;;;;6.53;3.00;;;;;;;5.70;100.00;91400.38;5051065;28;20045;-63
2024/01/18 05:04:53;;;;;;;4.15;2.03;;;;;;;5.62;100.00;91405.31;5051016;28;20041;-62
2024/01/18 05:07:20;;;;;;;3.63;2.10;;;;;;;5.64;100.00;91399.44;5048687;28;20275;-63
2024/01/18 05:09:47;;;;;;;7.80;3.70;;;;;;;5.60;100.00;91410.44;5051005;28;20401;-62
2024/01/18 05:12:13;;;;;;;7.78;4.20;;;;;;;5.68;100.00;91406.25;5050799;28;20053;-63
2024/01/18 05:14:40;;;;;;;7.88;3.25;;;;;;;5.70;100.00;91406.56;5050430;28;20037;-63
2024/01/18 05:17:10;;;;;;;3.75;1.52;;;;;;;5.72;100.00;91406.88;5050862;28;20052;-63
2024/01/18 05:19:38;;;;;;;2.60;1.30;;;;;;;5.78;100.00;91409.78;5050515;28;20053;-63
2024/01/18 05:22:05;;;;;;;3.92;1.85;;;;;;;5.83;100.00;91392.09;5051003;28;20045;-62
2024/01/18 05:24:32;;;;;;;2.40;1.42;;;;;;;5.90;100.00;91389.88;5050377;28;20044;-63
2024/01/18 05:26:59;;;;;;;2.70;1.55;;;;;;;5.89;100.00;91388.34;5050580;28;20045;-63
2024/01/18 05:29:26;;;;;;;4.20;2.17;;;;;;;5.84;100.00;91390.91;5049832;28;20041;-63
2024/01/18 05:31:53;;;;;;;2.10;1.00;;;;;;;5.83;100.00;91383.94;5050536;28;20116;-64
2024/01/18 05:34:20;;;;;;;3.25;1.42;;;;;;;5.83;100.00;91390.13;5049860;28;20441;-63
2024/01/18 05:36:47;;;;;;;2.40;1.52;;;;;;;5.85;100.00;91400.59;5065555;28;20060;-62
2024/01/18 05:39:14;;;;;;;4.25;1.50;;;;;;;5.84;100.00;91405.28;5050002;28;20047;-62
2024/01/18 05:41:41;;;;;;;2.42;1.45;;;;;;;5.89;100.00;91390.31;5049964;28;20529;-62
2024/01/18 05:44:09;;;;;;;4.00;2.00;;;;;;;5.99;100.00;91394.63;5050438;28;20083;-62
2024/01/18 05:46:37;;;;;;;2.63;1.23;;;;;;;5.93;100.00;91394.41;5049376;28;20076;-63
2024/01/18 05:49:04;;;;;;;1.80;0.80;;;;;;;5.99;100.00;91389.19;5050038;28;20048;-64
2024/01/18 05:51:31;;;;;;;1.98;0.88;;;;;;;5.99;100.00;91384.47;5050107;28;20045;-63
2024/01/18 05:53:58;;;;;;;2.47;1.13;;;;;;;5.92;100.00;91395.63;5050010;28;20430;-64
2024/01/18 05:56:26;;;;;;;2.13;1.17;;;;;;;5.88;100.00;91397.72;5049887;28;20045;-63
2024/01/18 05:58:53;;;;;;;3.65;1.23;;;;;;;5.85;100.00;91387.72;5050368;28;20041;-62
2024/01/18 06:01:21;;;;;;;3.55;1.67;;;;;;;5.86;100.00;91396.66;5049921;28;20051;-63
2024/01/18 06:03:48;;;;;;;3.47;1.30;;;;;;;5.80;100.00;91385.59;5049823;28;20094;-63
2024/01/18 06:06:15;;;;;;;4.35;2.20;;;;;;;5.64;100.00;91389.31;5048794;28;20413;-63
2024/01/18 06:08:42;;;;;;;4.40;1.80;;;;;;;5.64;100.00;91388.56;5049169;28;20094;-63
2024/01/18 06:11:09;;;;;;;3.78;1.52;;;;;;;5.61;100.00;91392.91;5049912;28;20049;-62
2024/01/18 06:13:39;;;;;;;2.50;1.40;;;;;;;5.63;100.00;91387.03;5049204;28;20056;-62
2024/01/18 06:16:11;;;;;;;3.83;1.85;;;;;;;5.59;100.00;91398.81;5049653;28;20055;-62
2024/01/18 06:18:38;;;;;;;3.08;1.70;;;;;;;5.62;100.00;91394.44;5049102;28;20455;-62
2024/01/18 06:21:07;;;;;;;2.80;1.70;;;;;;;5.64;100.00;91394.00;5049646;28;20048;-62
2024/01/18 06:23:38;;;;;;;3.20;1.77;;;;;;;5.64;100.00;91399.44;5048937;28;20090;-62
2024/01/18 06:26:10;;;;;;;4.10;1.50;;;;;;;5.68;100.00;91397.34;5049606;28;20037;-62
2024/01/18 06:28:38;;;;;;;2.78;1.40;;;;;;;5.70;100.00;91392.22;5049341;28;20049;-62
2024/01/18 06:31:05;;;;;;;2.40;1.30;;;;;;;5.72;100.00;91398.72;5049075;28;20048;-63
2024/01/18 06:33:32;;;;;;;4.13;2.20;;;;;;;5.71;100.00;91404.59;5048826;28;20044;-62
2024/01/18 06:35:59;;;;;;;4.32;2.20;;;;;;;5.67;100.00;91412.88;5049316;28;20045;-62
2024/01/18 06:38:26;;;;;;;4.10;1.80;;;;;;;5.65;100.00;91404.41;5048862;28;20437;-63
2024/01/18 06:40:54;;;;;;;2.78;1.38;;;;;;;5.68;100.00;91400.06;5049312;28;20113;-62
2024/01/18 06:43:20;;;;;;;2.85;1.77;;;;;;;5.65;100.00;91393.53;5049149;28;20055;-63
2024/01/18 06:45:54;;;;;;;3.07;1.57;;;;;;;5.64;100.00;91392.03;5049668;28;20496;-62
2024/01/18 06:48:22;;;;;;;3.88;2.10;;;;;;;5.63;100.00;91382.34;5048613;28;20039;-62
2024/01/18 06:50:49;;;;;;;2.85;1.50;;;;;;;5.69;100.00;91383.28;5040432;28;20041;-63
2024/01/18 06:53:15;;;;;;;4.53;1.55;;;;;;;5.72;100.00;91387.09;5048680;28;20390;-63
2024/01/18 06:55:43;;;;;;;2.65;1.42;;;;;;;5.73;100.00;91388.59;5048275;28;20055;-63
2024/01/18 06:58:09;;;;;;;3.97;1.23;;;;;;;5.72;100.00;91389.81;5049226;28;20045;-63
2024/01/18 07:00:36;;;;;;;2.58;0.98;;;;;;;5.70;100.00;91384.06;5048267;28;20051;-62
2024/01/18 07:03:07;;;;;;;2.63;1.27;;;;;;;5.76;100.00;91391.19;5049453;28;20098;-62
2024/01/18 07:05:34;;;;;;;2.83;1.40;;;;;;;5.75;100.00;91397.06;5048994;28;20045;-63
2024/01/18 07:08:00;;;;;;;3.30;1.60;;;;;;;5.73;100.00;91397.50;5049245;28;20045;-62
2024/01/18 07:10:27;;;;;;;2.87;1.43;;;;;;;5.70;100.00;91401.13;5048386;28;20044;-62
2024/01/18 07:12:54;;;;;;;3.35;1.17;;;;;;;5.75;100.00;91407.94;5062773;28;20067;-63
2024/01/18 07:15:21;;;;;;;2.15;1.23;;;;;;;5.81;100.00;91406.16;5049193;28;20041;-63
2024/01/18 07:17:48;;;;;;;4.00;1.05;;;;;;;5.93;100.00;91407.28;5049125;28;20044;-63
2024/01/18 07:20:15;;;;;;;2.60;1.45;;;;;;;5.93;100.00;91405.28;5049384;28;20090;-62
2024/01/18 07:22:42;;;;;;;1.90;1.20;;;;;;;5.91;100.00;91407.72;5048899;28;20047;-63
2024/01/18 07:25:08;;;;;;;2.00;1.08;;;;;;;6.09;100.00;91403.59;5049074;28;20041;-63
2024/01/18 07:27:36;;;;;;;1.50;0.70;;;;;;;6.11;100.00;91398.44;5047915;28;20115;-63
2024/01/18 07:30:03;;;;;;;2.25;1.25;;;;;;;6.14;100.00;91417.38;5048995;28;20048;-64
2024/01/18 07:32:30;;;;;;;2.42;1.00;;;;;;;6.09;100.00;91417.19;5048658;28;20045;-60
2024/01/18 07:34:57;;;;;;;1.73;0.90;;;;;;;6.02;100.00;91403.84;5049139;28;20045;-61
2024/01/18 07:37:24;;;;;;;2.10;1.27;;;;;;;6.04;100.00;91396.75;5048503;28;20043;-60
2024/01/18 07:39:51;;;;;;;2.17;1.00;;;;;;;6.04;100.00;91385.88;5049056;28;20045;-63
2024/01/18 07:42:18;;;;;;;1.92;1.00;;;;;;;6.05;100.00;91387.38;5049154;28;20049;-63
2024/01/18 07:44:46;;;;;;;1.73;0.90;;;;;;;6.05;100.00;91381.19;5048401;28;20870;-64
2024/01/18 07:47:13;;;;;;;2.30;1.30;;;;;;;6.00;100.00;91382.53;5048996;28;20094;-63
2024/01/18 07:49:45;;;;;;;2.92;1.10;;;;;;;6.05;100.00;91386.63;5048349;28;20053;-63
2024/01/18 07:52:17;;;;;;;2.72;1.25;;;;;;;5.98;100.00;91385.69;5048562;28;20041;-62
2024/01/18 07:54:44;;;;;;;2.47;1.00;;;;;;;5.93;100.00;91377.31;5048173;28;20048;-62
2024/01/18 07:57:11;;;;;;;2.17;1.38;;;;;;;5.86;100.00;91394.69;5048586;28;20040;-63
2024/01/18 07:59:37;;;;;;;1.80;0.70;;;;;;;5.84;100.00;91396.34;5048015;28;20378;-63
2024/01/18 08:02:04;;;;;;;1.67;0.80;;;;;;;5.84;100.00;91394.38;5048992;28;20037;-63
2024/01/18 08:04:31;;;;;;;1.80;1.10;;;;;;;5.82;100.00;91394.06;5051909;28;20477;-63
2024/01/18 08:06:58;;;;;;;2.13;1.00;;;;;;;5.84;100.00;91399.84;5052690;28;20052;-64
2024/01/18 08:09:26;;;;;;;2.42;1.10;;;;;;;5.89;100.00;91410.13;5051811;28;20409;-63
2024/01/18 08:11:53;;;;;;;2.03;1.17;;;;;;;5.93;100.00;91418.16;5052046;28;20086;-62
2024/01/18 08:14:20;;;;;;;2.17;1.17;;;;;;;6.08;100.00;91396.63;5051112;28;20041;-62
2024/01/18 08:16:47;;;;;;;4.03;1.17;;;;;;;6.16;100.00;91409.50;5051582;28;20049;-64
2024/01/18 08:19:13;;;;;;;1.88;0.90;;;;;;;6.21;100.00;91405.44;5052182;28;20443;-63
2024/01/18 08:21:43;;;;;;;2.00;1.25;;;;;;;6.29;100.00;91401.22;5051982;28;20048;-64
2024/01/18 08:24:11;;;;;;;1.67;0.90;;;;;;;6.32;100.00;91402.31;5067669;28;20040;-63
2024/01/18 08:26:38;;;;;;;2.00;1.10;;;;;;;6.29;100.00;91398.50;5051910;28;20710;-63
2024/01/18 08:29:07;;;;;;;2.20;1.10;;;;;;;6.27;100.00;91411.06;5051989;28;20052;-62
2024/01/18 08:31:34;;;;;;;1.55;0.75;;;;;;;6.28;100.00;91410.63;5051540;28;20045;-62
2024/01/18 08:34:01;;;;;;;1.98;1.00;;;;;;;6.26;100.00;91417.69;5051804;28;20470;-61
2024/01/18 08:36:28;;;;;;;2.07;0.70;;;;;;;6.32;100.00;91415.94;5051250;28;20063;-61
2024/01/18 08:38:55;;;;;;;1.95;0.80;;;;;;;6.37;100.00;91416.06;5052177;28;20041;-63
2024/01/18 08:41:21;;;;;;;2.30;1.25;;;;;;;6.42;100.00;91416.69;5051298;28;20044;-63
2024/01/18 08:43:48;;;;;;;2.00;1.10;;;;;;;6.54;100.00;91404.91;5067335;28;20041;-62
2024/01/18 08:46:15;;;;;;;2.75;1.40;;;;;;;6.73;100.00;91414.63;5051723;28;20064;-63
2024/01/18 08:48:42;;;;;;;1.90;1.10;;;;;;;6.76;100.00;91411.00;5051672;28;20045;-61
2024/01/18 08:51:13;;;;;;;2.10;1.10;;;;;;;6.90;100.00;91400.72;5051858;28;20057;-61
2024/01/18 08:53:40;;;;;;;2.03;1.20;;;;;;;6.91;100.00;91407.69;5051380;28;20053;-62
2024/01/18 08:56:07;;;;;;;1.90;1.17;;;;;;;7.10;100.00;91409.22;5051709;28;20093;-61
2024/01/18 08:58:36;;;;;;;3.50;1.80;;;;;;;7.46;100.00;91417.81;5050758;28;20053;-62
2024/01/18 09:01:02;;;;;;;3.47;1.50;;;;;;;7.75;100.00;91423.53;5051716;28;20379;-62
2024/01/18 09:03:30;;;;;;;2.67;1.35;;;;;;;8.04;100.00;91418.75;5050782;28;20110;-61
2024/01/18 09:05:57;;;;;;;4.65;2.60;;;;;;;8.00;100.00;91413.44;5051439;28;20485;-62
2024/01/18 09:08:23;;;;;;;3.08;1.65;;;;;;;7.70;100.00;91412.47;5051186;28;20482;-61
2024/01/18 09:10:52;;;;;;;2.65;0.77;;;;;;;7.47;100.00;91420.09;5051553;28;20052;-63
2024/01/18 09:13:20;;;;;;;3.13;1.60;;;;;;;7.35;100.00;91419.06;5049704;28;20496;-61
2024/01/18 09:15:48;;;;;;;2.63;1.10;;;;;;;7.27;100.00;91422.56;5049623;28;21590;-61
2024/01/18 09:18:15;;;;;;;3.28;2.22;;;;;;;7.24;100.00;91413.28;5051010;28;20154;-61
2024/01/18 09:20:45;;;;;;;3.10;1.48;;;;;;;7.24;100.00;91418.00;5050597;28;20494;-61
2024/01/18 09:23:12;;;;;;;2.20;1.00;;;;;;;7.17;100.00;91425.28;5051141;28;20047;-61
2024/01/18 09:25:41;;;;;;;2.67;1.10;;;;;;;7.20;100.00;91429.06;5050771;28;20045;-61
2024/01/18 09:28:09;;;;;;;1.90;0.80;;;;;;;7.25;100.00;91433.91;5051182;28;20498;-61
2024/01/18 09:30:36;;;;;;;2.10;1.20;;;;;;;7.22;100.00;91436.78;5049434;28;20048;-62
2024/01/18 09:33:07;;;;;;;2.30;1.20;;;;;;;7.27;100.00;91436.94;5049811;28;20045;-63
2024/01/18 09:35:36;;;;;;;2.80;1.58;;;;;;;7.23;100.00;91447.25;5050618;28;20052;-61
2024/01/18 09:38:03;;;;;;;5.30;2.87;;;;;;;7.16;100.00;91450.25;5051121;28;20045;-62
2024/01/18 09:40:30;;;;;;;3.90;1.88;;;;;;;7.20;100.00;91456.31;5050139;28;20048;-62
2024/01/18 09:43:03;;;;;;;5.75;2.65;;;;;;;7.16;100.00;91444.81;5051018;28;20052;-62
2024/01/18 09:45:32;;;;;;;3.10;1.58;;;;;;;7.19;100.00;91455.56;5050461;28;20178;-62
2024/01/18 09:47:59;;;;;;;2.55;1.40;;;;;;;7.11;100.00;91465.28;5050827;28;20051;-62
2024/01/18 09:50:27;;;;;;;5.23;2.60;;;;;;;7.14;100.00;91455.41;5050406;28;20053;-64
2024/01/18 09:52:53;;;;;;;4.07;2.08;;;;;;;7.13;100.00;91459.38;5050506;28;20428;-62
2024/01/18 09:55:20;;;;;;;2.15;1.10;;;;;;;7.14;100.00;91469.84;5050383;28;20494;-62
2024/01/18 09:57:48;;;;;;;3.53;2.03;;;;;;;7.23;100.00;91474.53;5050263;28;20045;-62
2024/01/18 10:00:19;;;;;;;4.03;2.05;;;;;;;7.27;100.00;91466.19;5050568;28;20041;-61
2024/01/18 10:02:46;;;;;;;3.47;2.00;;;;;;;7.25;100.00;91454.97;5049530;28;21646;-62
2024/01/18 10:05:12;;;;;;;2.83;1.38;;;;;;;7.34;100.00;91463.16;5050397;28;20375;-62
2024/01/18 10:07:40;;;;;;;3.35;1.88;;;;;;;7.46;100.00;91464.22;5049407;28;20047;-63
2024/01/18 10:10:14;;;;;;;5.30;2.10;;;;;;;7.52;100.00;91462.38;5050334;28;20403;-63
2024/01/18 10:12:42;;;;;;;3.70;1.30;;;;;;;7.48;100.00;91459.06;5048141;28;20040;-62
2024/01/18 10:15:09;;;;;;;2.23;0.90;;;;;;;7.47;100.00;91463.00;5050264;28;20452;-62
2024/01/18 10:17:38;;;;;;;2.00;0.98;;;;;;;7.39;100.00;91454.38;5049699;28;20504;-63
2024/01/18 10:20:13;;;;;;;2.78;0.70;;;;;;;7.40;100.00;91451.19;5049886;28;20044;-62
2024/01/18 10:22:41;;;;;;;7.18;4.30;;;;;;;7.51;100.00;91447.25;5049769;28;20666;-63
2024/01/18 10:25:12;;;;;;;4.85;2.70;;;;;;;7.50;100.00;91460.09;5050137;28;20482;-62
2024/01/18 10:27:42;;;;;;;5.10;2.83;;;;;;;7.41;100.00;91451.94;5049414;28;20110;-62
2024/01/18 10:30:11;;;;;;;4.85;2.45;;;;;;;7.59;100.00;91457.38;5050192;28;20055;-62
2024/01/18 10:32:43;;;;;;;3.40;2.13;;;;;;;7.70;100.00;91464.34;5049594;28;20041;-62
2024/01/18 10:35:28;;;;;;;2.80;1.40;;;;;;;7.79;100.00;91464.34;5037423;28;20509;-63
2024/01/18 10:38:06;;;;;;;4.15;2.03;;;;;;;8.00;100.00;91468.06;5049087;28;20048;-62
2024/01/18 10:40:36;;;;;;;4.23;2.03;;;;;;;8.26;100.00;91463.00;5049179;28;20072;-62
2024/01/18 10:43:05;;;;;;;8.38;4.47;;;;;;;8.23;100.00;91454.94;5049797;28;20044;-64
2024/01/18 10:45:31;;;;;;;4.55;2.40;;;;;;;8.00;100.00;91466.09;5049381;28;20051;-62
2024/01/18 10:47:59;;;;;;;3.65;1.60;;;;;;;8.17;100.00;91476.69;5049650;28;20060;-63
2024/01/18 10:50:28;;;;;;;5.68;3.08;;;;;;;8.28;100.00;91470.72;5049238;28;20041;-62
2024/01/18 10:52:57;;;;;;;5.83;3.37;;;;;;;8.28;100.00;91474.22;5050064;28;20045;-63
2024/01/18 10:55:24;;;;;;;2.67;1.40;;;;;;;8.19;100.00;91477.75;5048063;28;20049;-63
2024/01/18 10:57:51;;;;;;;3.10;1.30;;;;;;;8.15;100.00;91479.13;5049344;28;20040;-62
2024/01/18 11:00:19;;;;;;;5.05;2.15;;;;;;;8.14;100.00;91483.81;5049299;28;20037;-62
2024/01/18 11:02:46;;;;;;;3.15;1.50;;;;;;;8.06;100.00;91501.75;5048330;28;21618;-62
2024/01/18 11:05:14;;;;;;;3.57;1.73;;;;;;;7.80;100.00;91487.69;5049433;28;20118;-62
2024/01/18 11:07:41;;;;;;;4.57;2.85;;;;;;;7.80;100.00;91501.34;5047530;28;20052;-62
2024/01/18 11:10:12;;;;;;;4.25;1.50;;;;;;;7.85;100.00;91503.47;5049316;28;20053;-63
2024/01/18 11:12:43;;;;;;;2.20;1.20;;;;;;;7.72;100.00;91494.66;5046929;28;20048;-64
2024/01/18 11:15:13;;;;;;;2.50;1.50;;;;;;;7.77;100.00;91492.09;5049649;28;20041;-62
2024/01/18 11:17:47;;;;;;;5.60;2.63;;;;;;;7.72;100.00;91491.94;5048769;28;20048;-64
2024/01/18 11:20:15;;;;;;;5.63;2.40;;;;;;;7.69;100.00;91495.59;5049000;28;20075;-62
2024/01/18 11:22:42;;;;;;;7.13;3.70;;;;;;;7.66;100.00;91496.50;5048744;28;20436;-61
2024/01/18 11:25:10;;;;;;;5.32;2.67;;;;;;;7.71;100.00;91506.81;5049441;28;20448;-63
2024/01/18 11:27:39;;;;;;;5.22;2.97;;;;;;;7.70;100.00;91506.03;5048609;28;20049;-63
2024/01/18 11:30:35;;;;;;;6.47;3.17;;;;;;;7.67;100.00;91500.75;5049286;28;20114;-63
2024/01/18 11:33:03;;;;;;;4.53;2.40;;;;;;;7.72;100.00;91511.81;5043363;28;20095;-62
2024/01/18 11:35:30;;;;;;;5.38;2.13;;;;;;;7.73;100.00;91509.84;5048580;28;20052;-62